Return to the overview of this dataset or to the list of all FOR816 datasets.


Value filter for entity: Microclimate(id: 426) of dataset: Forest microclimate ECSF tree T122 midstorey (z3) (dsid: 643)

Select attribute to work with:



Order by

Aggregate by date/time

on attribute:

Draw graph of subset

    x     y1     y2  
     
Ta_2m (air temperature in 2m)
Huma_2m (Air humidity 2m)
datetime (Date and Time)

Results:

page: 1 / 85 , page size: , max results: 4219

Ta_2m Huma_2m datetime
15.26 98.3 2004-11-02 23:00:00
15.09 99.0 2004-11-02 23:30:00
15.07 99.0 2004-11-03 00:00:00
15.04 99.7 2004-11-03 00:30:00
14.99 99.7 2004-11-03 01:00:00
14.95 99.7 2004-11-03 01:30:00
14.92 99.7 2004-11-03 02:00:00
14.87 99.7 2004-11-03 02:30:00
14.8 100.0 2004-11-03 03:00:00
14.8 100.0 2004-11-03 03:30:00
14.8 100.0 2004-11-03 04:00:00
14.8 100.0 2004-11-03 04:30:00
14.83 100.0 2004-11-03 05:00:00
14.78 100.0 2004-11-03 05:30:00
14.75 100.3 2004-11-03 06:00:00
14.75 100.3 2004-11-03 06:30:00
15.07 100.0 2004-11-03 07:00:00
15.5 100.0 2004-11-03 07:30:00
15.76 100.0 2004-11-03 08:00:00
15.95 100.0 2004-11-03 08:30:00
16.21 99.3 2004-11-03 09:00:00
16.4 97.9 2004-11-03 09:30:00
16.81 97.9 2004-11-03 10:00:00
17.24 95.0 2004-11-03 10:30:00
17.92 85.5 2004-11-03 11:00:00
18.59 85.5 2004-11-03 11:30:00
19.52 85.1 2004-11-03 12:00:00
18.71 84.2 2004-11-03 12:30:00
19.14 84.2 2004-11-03 13:00:00
18.85 87.3 2004-11-03 13:30:00
18.52 88.1 2004-11-03 14:00:00
19.73 78.1 2004-11-03 14:30:00
21.4 70.3 2004-11-03 15:00:00
22.55 65.8 2004-11-03 15:30:00
22.07 68.3 2004-11-03 16:00:00
20.02 80.0 2004-11-03 16:30:00
18.8 84.6 2004-11-03 17:00:00
18.02 91.5 2004-11-03 17:30:00
17.24 91.5 2004-11-03 18:00:00
16.78 93.5 2004-11-03 18:30:00
16.43 95.4 2004-11-03 19:00:00
16.19 95.8 2004-11-03 19:30:00
16.12 95.0 2004-11-03 20:00:00
16.09 95.0 2004-11-03 20:30:00
15.85 96.5 2004-11-03 21:00:00
15.69 96.5 2004-11-03 21:30:00
15.54 97.2 2004-11-03 22:00:00
15.47 97.9 2004-11-03 22:30:00
15.4 97.2 2004-11-03 23:00:00
15.33 97.2 2004-11-03 23:30:00

page: 1 / 85 , max results: 4219


Return to the overview of this dataset or to the list of all FOR816 datasets.



Quick search

  • Publications:
  • Datasets: